Time;durP1;ratioP1;P1;durP2;ratioP2;P2;SDS_P1;SDS_P2;PMS_P1;PMS_P2;Temp;Humidity;BMP_temperature;BMP_pressure;BME280_temperature;BME280_humidity;BME280_pressure;Samples;Min_cycle;Max_cycle;Signal;HPM_P1;HPM_P2
2022/07/02 00:00:39;;;;;;;37.33;35.45;;;;;;;22.19;41.37;102042.69;5062425;28;20056;-78
2022/07/02 00:03:05;;;;;;;38.35;36.40;;;;;;;22.16;41.54;102040.47;5060323;28;20523;-75
2022/07/02 00:05:32;;;;;;;39.05;36.80;;;;;;;22.14;41.82;102025.38;5060323;28;20461;-77
2022/07/02 00:07:58;;;;;;;37.47;35.58;;;;;;;22.11;41.68;102028.69;5058812;28;20326;-79
2022/07/02 00:10:24;;;;;;;36.47;34.67;;;;;;;22.10;41.79;102024.28;5057896;28;20029;-79
2022/07/02 00:12:50;;;;;;;38.20;36.20;;;;;;;22.07;41.77;102024.88;5055217;28;20416;-78
2022/07/02 00:15:16;;;;;;;35.55;33.65;;;;;;;22.04;41.57;102029.03;5056598;28;20098;-78
2022/07/02 00:17:42;;;;;;;36.47;34.05;;;;;;;22.02;41.64;102021.09;5056952;28;20056;-78
2022/07/02 00:20:08;;;;;;;37.83;35.72;;;;;;;21.99;41.89;102020.81;5054843;28;20068;-79
2022/07/02 00:22:34;;;;;;;36.45;34.65;;;;;;;21.97;41.94;102032.13;5056052;28;20067;-78
2022/07/02 00:25:00;;;;;;;37.33;35.42;;;;;;;21.95;42.14;102034.34;5038615;28;20060;-78
2022/07/02 00:27:28;;;;;;;37.40;35.08;;;;;;;21.94;41.68;102031.88;5054845;28;20053;-78
2022/07/02 00:30:01;;;;;;;37.17;35.05;;;;;;;21.91;41.63;102024.19;5056742;28;20095;-78
2022/07/02 00:32:29;;;;;;;37.45;34.95;;;;;;;21.88;41.59;102031.09;5056358;28;20033;-78
2022/07/02 00:34:56;;;;;;;35.75;33.95;;;;;;;21.86;41.77;102021.50;5056250;28;20037;-80
2022/07/02 00:37:25;;;;;;;38.10;36.00;;;;;;;21.85;42.06;102028.09;5055839;28;20029;-79
2022/07/02 00:39:50;;;;;;;35.88;33.80;;;;;;;21.80;41.51;102024.28;5056127;28;20055;-78
2022/07/02 00:42:16;;;;;;;36.38;34.47;;;;;;;21.79;41.70;102036.38;5055795;28;20540;-79
2022/07/02 00:44:42;;;;;;;36.85;34.85;;;;;;;21.76;41.72;102025.16;5055810;28;20370;-78
2022/07/02 00:47:09;;;;;;;37.85;35.85;;;;;;;21.75;42.07;102029.00;5056244;28;20060;-79
2022/07/02 00:49:37;;;;;;;36.42;34.53;;;;;;;21.72;41.58;102018.56;5056258;28;20032;-79
2022/07/02 00:52:04;;;;;;;35.50;33.57;;;;;;;21.70;42.00;102021.63;5054269;28;20554;-79
2022/07/02 00:54:30;;;;;;;35.55;33.67;;;;;;;21.67;42.03;102026.84;5056163;28;20068;-79
2022/07/02 00:56:55;;;;;;;36.78;34.58;;;;;;;21.65;42.14;102026.34;5054730;28;20036;-79
2022/07/02 00:59:25;;;;;;;35.55;33.65;;;;;;;21.63;41.73;102025.81;5055010;28;20037;-79
2022/07/02 01:01:51;;;;;;;35.92;34.13;;;;;;;21.60;41.87;102024.44;5054093;28;20029;-73
2022/07/02 01:04:17;;;;;;;35.08;33.17;;;;;;;21.58;42.20;102032.97;5054284;28;20032;-78
2022/07/02 01:06:43;;;;;;;34.58;32.88;;;;;;;21.56;41.60;102031.63;5055256;28;20025;-79
2022/07/02 01:11:59;;;;;;;37.42;35.13;;;;;;;21.51;42.09;102026.16;5054923;28;20043;-79
2022/07/02 01:14:24;;;;;;;36.25;33.63;;;;;;;21.49;42.02;102034.66;5054944;28;20057;-75
2022/07/02 01:16:50;;;;;;;35.00;33.20;;;;;;;21.46;42.05;102027.00;5055208;28;20150;-78
2022/07/02 01:19:20;;;;;;;33.92;32.33;;;;;;;21.44;42.10;102015.47;5054680;28;20462;-78
2022/07/02 01:22:09;;;;;;;35.58;33.60;;;;;;;21.42;41.90;102020.44;5054783;28;20056;-79
2022/07/02 01:24:35;;;;;;;34.67;32.88;;;;;;;21.39;41.97;102018.25;5055568;28;20025;-79
2022/07/02 01:27:00;;;;;;;34.53;32.72;;;;;;;21.36;41.95;102022.34;5054660;28;20156;-79
2022/07/02 01:29:25;;;;;;;33.88;32.08;;;;;;;21.35;41.90;102017.16;5055212;28;20037;-79
2022/07/02 01:31:51;;;;;;;35.33;33.53;;;;;;;21.33;41.93;102003.69;5054855;28;20029;-79
2022/07/02 01:34:16;;;;;;;33.92;32.25;;;;;;;21.31;42.02;102010.56;5054467;28;20036;-79
2022/07/02 01:36:41;;;;;;;34.08;32.28;;;;;;;21.29;42.06;102013.63;5054477;28;20482;-79
2022/07/02 01:39:07;;;;;;;35.90;34.00;;;;;;;21.28;42.04;102016.66;5054332;28;20067;-78
2022/07/02 01:41:41;;;;;;;34.15;32.35;;;;;;;21.26;41.94;102007.88;5053371;28;20033;-79
2022/07/02 01:44:08;;;;;;;34.97;32.97;;;;;;;21.24;42.06;102018.31;5055287;28;20075;-77
2022/07/02 01:46:34;;;;;;;34.22;32.50;;;;;;;21.21;42.04;102013.38;5054709;28;20033;-79
2022/07/02 01:49:00;;;;;;;36.63;34.15;;;;;;;21.18;41.78;102026.59;5054463;28;20036;-77
2022/07/02 01:51:25;;;;;;;35.30;32.75;;;;;;;21.16;42.16;102019.72;5054550;28;20037;-79
2022/07/02 01:53:50;;;;;;;35.53;33.72;;;;;;;21.14;41.87;102016.44;5053092;28;20029;-79
2022/07/02 01:56:16;;;;;;;33.40;31.60;;;;;;;21.13;42.29;102023.88;5052801;28;20045;-78
2022/07/02 01:58:41;;;;;;;34.45;32.65;;;;;;;21.10;42.19;102024.44;5054303;28;20465;-77
2022/07/02 02:01:07;;;;;;;35.53;33.53;;;;;;;21.09;41.87;102011.81;5052886;28;20110;-80
2022/07/02 02:03:32;;;;;;;34.78;32.88;;;;;;;21.07;42.04;102022.25;5053549;28;20093;-79
2022/07/02 02:05:58;;;;;;;34.15;32.15;;;;;;;21.06;42.27;102026.09;5054030;28;20400;-78
2022/07/02 02:08:23;;;;;;;33.83;32.10;;;;;;;21.03;42.20;102018.44;5054136;28;20539;-78
2022/07/02 02:10:49;;;;;;;34.58;32.78;;;;;;;21.03;41.93;102021.16;5053963;28;20473;-78
2022/07/02 02:13:14;;;;;;;34.75;32.85;;;;;;;21.01;42.40;102019.81;5052979;28;20033;-79
2022/07/02 02:15:40;;;;;;;33.00;31.27;;;;;;;20.98;42.02;102017.63;5053809;28;20418;-77
2022/07/02 02:18:05;;;;;;;34.88;32.38;;;;;;;20.96;42.24;102013.25;5054476;28;20037;-79
2022/07/02 02:20:30;;;;;;;31.40;29.80;;;;;;;20.95;41.83;102019.84;5054069;28;20484;-79
2022/07/02 02:22:56;;;;;;;33.15;31.30;;;;;;;20.94;42.38;102025.59;5053990;28;20033;-78
2022/07/02 02:25:21;;;;;;;33.75;32.05;;;;;;;20.91;42.37;102021.50;5053874;28;20529;-79
2022/07/02 02:27:47;;;;;;;32.75;30.77;;;;;;;20.90;42.00;102019.84;5053782;28;20049;-79
2022/07/02 02:30:14;;;;;;;32.90;31.15;;;;;;;20.89;42.13;102022.88;5054133;28;20068;-78
2022/07/02 02:32:39;;;;;;;32.17;30.48;;;;;;;20.87;42.23;102014.94;5054636;28;20116;-78
2022/07/02 02:35:05;;;;;;;31.60;30.05;;;;;;;20.85;41.95;102016.31;5053655;28;20033;-80
2022/07/02 02:37:31;;;;;;;30.83;29.30;;;;;;;20.83;42.12;102013.03;5053955;28;20044;-80
2022/07/02 02:39:56;;;;;;;32.20;30.55;;;;;;;20.82;41.98;102014.16;5052982;28;20100;-79
2022/07/02 02:42:21;;;;;;;33.00;31.05;;;;;;;20.80;42.06;102010.84;5053551;28;20040;-79
2022/07/02 02:44:47;;;;;;;31.92;30.33;;;;;;;20.77;41.72;102020.47;5053575;28;20025;-79
2022/07/02 02:47:12;;;;;;;33.17;31.35;;;;;;;20.75;42.39;102015.25;5053304;28;20071;-79
2022/07/02 02:49:38;;;;;;;31.30;29.63;;;;;;;20.74;42.28;102021.03;5053091;28;20147;-79
2022/07/02 02:52:04;;;;;;;31.83;30.17;;;;;;;20.72;42.15;102021.31;5053354;28;20374;-79
2022/07/02 02:54:30;;;;;;;31.98;30.38;;;;;;;20.71;42.48;102021.56;5053464;28;20401;-79
2022/07/02 02:56:55;;;;;;;32.67;30.98;;;;;;;20.69;42.29;102019.13;5052272;28;20041;-79
2022/07/02 02:59:21;;;;;;;34.10;32.20;;;;;;;20.67;42.19;102023.25;5053432;28;20036;-79
2022/07/02 03:01:46;;;;;;;33.50;31.75;;;;;;;20.65;42.30;102020.78;5052423;28;20033;-79
2022/07/02 03:04:11;;;;;;;34.40;32.55;;;;;;;20.64;42.34;102016.41;5053332;28;20462;-79
2022/07/02 03:06:37;;;;;;;33.47;31.73;;;;;;;20.62;42.07;102021.34;5053466;28;20028;-78
2022/07/02 03:09:02;;;;;;;31.25;29.65;;;;;;;20.60;42.48;102031.78;5053196;28;20033;-80
2022/07/02 03:11:28;;;;;;;32.05;30.35;;;;;;;20.59;42.36;102032.03;5053034;28;20484;-76
2022/07/02 03:13:54;;;;;;;33.00;31.30;;;;;;;20.57;42.33;102026.03;5053831;28;20369;-79
2022/07/02 03:16:19;;;;;;;32.33;30.52;;;;;;;20.55;42.53;102025.47;5052987;28;20025;-79
2022/07/02 03:18:45;;;;;;;31.50;29.85;;;;;;;20.53;42.14;102028.47;5052933;28;20512;-80
2022/07/02 03:21:10;;;;;;;32.75;30.92;;;;;;;20.52;42.33;102035.88;5053975;28;20029;-80
2022/07/02 03:23:35;;;;;;;32.08;30.45;;;;;;;20.49;42.29;102035.63;5056059;28;20466;-79
2022/07/02 03:26:01;;;;;;;32.63;30.90;;;;;;;20.48;42.31;102042.19;5057747;28;20346;-79
2022/07/02 03:28:26;;;;;;;32.22;30.52;;;;;;;20.46;42.43;102039.75;5057958;28;20132;-78
2022/07/02 03:30:52;;;;;;;31.40;29.58;;;;;;;20.45;42.37;102045.50;5056742;28;20462;-79
2022/07/02 03:33:17;;;;;;;32.60;30.90;;;;;;;20.43;42.58;102048.53;5039258;28;20354;-80
2022/07/02 03:35:42;;;;;;;30.88;29.38;;;;;;;20.41;42.41;102048.00;5056995;28;20060;-80
2022/07/02 03:38:08;;;;;;;31.25;29.65;;;;;;;20.40;42.71;102051.00;5057243;28;20037;-79
2022/07/02 03:40:33;;;;;;;32.13;30.35;;;;;;;20.38;42.62;102048.53;5056859;28;20393;-77
2022/07/02 03:42:59;;;;;;;30.98;29.33;;;;;;;20.37;42.37;102046.09;5056001;28;20519;-79
2022/07/02 03:45:24;;;;;;;32.13;30.52;;;;;;;20.35;42.24;102046.34;5056899;28;20029;-78
2022/07/02 03:47:49;;;;;;;30.73;29.02;;;;;;;20.34;42.48;102046.63;5056591;28;20525;-78
2022/07/02 03:50:15;;;;;;;32.03;30.17;;;;;;;20.32;42.44;102055.94;5055453;28;20465;-78
2022/07/02 03:52:40;;;;;;;31.20;29.60;;;;;;;20.31;42.62;102057.06;5057268;28;20056;-79
2022/07/02 03:55:07;;;;;;;30.90;29.23;;;;;;;20.29;42.54;102050.22;5056712;28;20037;-78
2022/07/02 03:57:33;;;;;;;32.08;30.13;;;;;;;20.29;42.24;102056.50;5056895;28;20028;-78
2022/07/02 03:59:58;;;;;;;31.23;29.42;;;;;;;20.27;42.53;102052.41;5056875;28;20025;-79
2022/07/02 04:02:23;;;;;;;32.35;30.50;;;;;;;20.24;42.54;102056.53;5056613;28;20067;-78
2022/07/02 04:04:49;;;;;;;30.92;29.17;;;;;;;20.24;42.86;102063.94;5056717;28;20029;-80
2022/07/02 04:07:14;;;;;;;31.25;29.55;;;;;;;20.22;42.61;102069.69;5056476;28;20040;-79
2022/07/02 04:09:40;;;;;;;30.60;28.55;;;;;;;20.22;42.37;102069.69;5056651;28;20025;-80
2022/07/02 04:12:05;;;;;;;30.63;28.83;;;;;;;20.20;42.76;102071.06;5056254;28;20120;-80
2022/07/02 04:14:31;;;;;;;30.38;28.67;;;;;;;20.19;42.59;102067.50;5056349;28;20383;-81
2022/07/02 04:16:56;;;;;;;31.02;29.40;;;;;;;20.17;42.39;102064.19;5054941;28;20065;-80
2022/07/02 04:19:21;;;;;;;31.48;29.77;;;;;;;20.16;42.78;102070.78;5056668;28;20033;-80
2022/07/02 04:21:47;;;;;;;30.98;29.08;;;;;;;20.15;42.54;102065.56;5056304;28;20064;-80
2022/07/02 04:24:13;;;;;;;31.83;30.13;;;;;;;20.13;42.60;102060.34;5056418;28;20474;-81
2022/07/02 04:26:38;;;;;;;31.15;29.48;;;;;;;20.13;42.79;102068.59;5056127;28;20086;-81
2022/07/02 04:29:03;;;;;;;31.27;29.58;;;;;;;20.12;42.68;102066.94;5056008;28;20477;-80
2022/07/02 04:31:30;;;;;;;31.48;29.88;;;;;;;20.10;42.71;102058.97;5054362;28;20067;-80
2022/07/02 04:33:55;;;;;;;31.90;30.20;;;;;;;20.09;42.58;102065.56;5054830;28;20044;-79
2022/07/02 04:36:20;;;;;;;31.15;29.55;;;;;;;20.09;42.61;102064.75;5055495;28;20055;-81
2022/07/02 04:38:46;;;;;;;32.00;30.30;;;;;;;20.07;43.13;102061.47;5055656;28;20045;-81
2022/07/02 04:41:11;;;;;;;30.25;28.65;;;;;;;20.07;43.00;102072.44;5056758;28;20086;-83
2022/07/02 04:43:36;;;;;;;30.77;29.08;;;;;;;20.04;42.97;102062.84;5055831;28;20028;-79
2022/07/02 04:46:02;;;;;;;30.35;28.85;;;;;;;20.05;42.99;102058.16;5055767;28;20033;-80
2022/07/02 04:48:27;;;;;;;31.02;29.42;;;;;;;20.04;42.98;102062.03;5055657;28;20078;-79
2022/07/02 04:50:53;;;;;;;31.58;29.20;;;;;;;20.02;43.07;102059.53;5055566;28;20033;-80
2022/07/02 04:53:18;;;;;;;31.55;28.83;;;;;;;20.02;43.08;102072.44;5055787;28;20151;-81
2022/07/02 04:55:43;;;;;;;29.45;27.85;;;;;;;20.01;42.79;102068.06;5055500;28;20033;-78
2022/07/02 04:58:09;;;;;;;31.02;29.52;;;;;;;20.00;42.89;102069.13;5055503;28;20071;-78
2022/07/02 05:00:34;;;;;;;32.15;30.30;;;;;;;19.99;42.86;102067.50;5054068;28;20029;-79
2022/07/02 05:03:00;;;;;;;30.65;28.60;;;;;;;19.98;43.13;102068.59;5055597;28;20358;-80
2022/07/02 05:05:25;;;;;;;32.92;31.23;;;;;;;19.97;43.01;102062.28;5055387;28;20079;-79
2022/07/02 05:07:50;;;;;;;31.25;29.48;;;;;;;19.97;43.02;102067.75;5055662;28;20033;-80
2022/07/02 05:10:16;;;;;;;29.00;27.50;;;;;;;19.95;42.76;102060.91;5055728;28;20032;-80
2022/07/02 05:12:41;;;;;;;30.63;29.02;;;;;;;19.95;42.82;102064.47;5055053;28;20044;-80
2022/07/02 05:15:07;;;;;;;30.13;28.63;;;;;;;19.94;43.09;102073.81;5055391;28;20465;-81
2022/07/02 05:17:32;;;;;;;30.80;29.20;;;;;;;19.93;43.01;102066.66;5055103;28;20428;-80
2022/07/02 05:19:58;;;;;;;29.95;28.45;;;;;;;19.92;43.08;102070.50;5055996;28;20033;-79
2022/07/02 05:22:23;;;;;;;31.13;29.02;;;;;;;19.92;43.43;102061.47;5055831;28;20032;-74
2022/07/02 05:24:48;;;;;;;31.15;29.42;;;;;;;19.92;43.26;102066.94;5053671;28;20452;-82
2022/07/02 05:27:14;;;;;;;29.98;28.48;;;;;;;19.92;43.40;102066.94;5055323;28;20049;-80
2022/07/02 05:29:39;;;;;;;30.90;29.20;;;;;;;19.92;43.47;102066.94;5054869;28;20029;-80
2022/07/02 05:32:05;;;;;;;30.27;28.67;;;;;;;19.91;43.41;102063.38;5054860;28;20461;-80
2022/07/02 05:34:30;;;;;;;31.23;29.50;;;;;;;19.92;43.47;102065.03;5054671;28;20064;-79
2022/07/02 05:36:56;;;;;;;30.35;28.80;;;;;;;19.93;43.59;102068.59;5054811;28;20116;-81
2022/07/02 05:39:21;;;;;;;32.42;30.42;;;;;;;19.93;43.31;102074.06;5055004;28;20040;-78
2022/07/02 05:41:46;;;;;;;31.98;29.92;;;;;;;19.93;43.32;102074.88;5054694;28;20111;-81
2022/07/02 05:44:12;;;;;;;30.38;28.65;;;;;;;19.92;43.40;102076.00;5054840;28;20036;-80
2022/07/02 05:46:37;;;;;;;31.90;29.98;;;;;;;19.94;43.77;102079.28;5054530;28;20056;-80
2022/07/02 05:49:02;;;;;;;28.58;27.17;;;;;;;19.95;43.83;102082.84;5054570;28;20029;-79
2022/07/02 05:51:28;;;;;;;31.00;29.13;;;;;;;19.95;43.57;102080.94;5054349;28;20147;-80
2022/07/02 05:53:53;;;;;;;29.30;27.60;;;;;;;19.95;43.76;102075.44;5054742;28;20035;-80
2022/07/02 05:56:19;;;;;;;30.42;28.67;;;;;;;19.96;43.88;102068.88;5054495;28;20465;-81
2022/07/02 05:58:44;;;;;;;30.85;29.20;;;;;;;19.98;43.68;102069.44;5054553;28;20035;-80
2022/07/02 06:01:10;;;;;;;29.15;27.55;;;;;;;19.99;43.89;102078.47;5055300;28;20462;-79
2022/07/02 06:03:35;;;;;;;31.98;30.05;;;;;;;19.99;43.86;102083.97;5054281;28;20595;-75
2022/07/02 06:08:44;;;;;;;32.60;30.48;;;;;;;20.02;44.05;102077.91;5054364;28;20048;-76
2022/07/02 06:11:11;;;;;;;30.38;28.73;;;;;;;20.03;43.96;102080.41;5053993;28;20033;-77
2022/07/02 06:13:36;;;;;;;32.40;30.58;;;;;;;20.06;43.92;102081.78;5053932;28;20042;-75
2022/07/02 06:16:02;;;;;;;31.45;29.63;;;;;;;20.07;43.94;102075.19;5053753;28;20032;-75
2022/07/02 06:18:27;;;;;;;30.77;29.08;;;;;;;20.09;44.25;102070.25;5053942;28;20049;-76
2022/07/02 06:20:53;;;;;;;31.15;29.65;;;;;;;20.11;43.73;102076.28;5053871;28;20033;-77
2022/07/02 06:23:21;;;;;;;30.95;29.15;;;;;;;20.13;44.03;102087.78;5054267;28;20029;-79
2022/07/02 06:25:47;;;;;;;30.38;28.63;;;;;;;20.15;44.17;102087.53;5053786;28;20039;-78
2022/07/02 06:28:13;;;;;;;30.95;29.00;;;;;;;20.16;44.05;102084.50;5054910;28;20057;-77
2022/07/02 06:30:38;;;;;;;31.45;29.80;;;;;;;20.19;43.90;102088.63;5053686;28;20033;-79
2022/07/02 06:33:03;;;;;;;30.75;28.98;;;;;;;20.20;44.10;102082.84;5054006;28;20480;-79
2022/07/02 06:35:29;;;;;;;30.27;28.67;;;;;;;20.24;43.86;102083.13;5053803;28;20393;-79
2022/07/02 06:37:54;;;;;;;31.00;29.20;;;;;;;20.25;43.80;102088.34;5052435;28;20041;-81
2022/07/02 06:40:20;;;;;;;30.38;28.80;;;;;;;20.27;44.30;102088.88;5053783;28;20037;-77
2022/07/02 06:42:45;;;;;;;31.60;29.92;;;;;;;20.30;44.13;102085.59;5053583;28;20124;-77
2022/07/02 06:45:11;;;;;;;30.90;29.30;;;;;;;20.34;44.01;102087.81;5052387;28;20394;-78
2022/07/02 06:47:41;;;;;;;31.67;29.90;;;;;;;20.36;44.21;102080.09;5053492;28;20032;-78
2022/07/02 06:50:07;;;;;;;31.08;29.33;;;;;;;20.39;44.37;102083.13;5053576;28;20119;-79
2022/07/02 06:52:32;;;;;;;30.60;29.00;;;;;;;20.42;44.24;102084.50;5053360;28;20033;-79
2022/07/02 06:54:58;;;;;;;31.73;29.92;;;;;;;20.45;44.14;102083.94;5054202;28;20350;-78
2022/07/02 06:57:23;;;;;;;30.52;29.02;;;;;;;20.46;43.93;102078.19;5052589;28;20029;-78
2022/07/02 06:59:48;;;;;;;32.30;30.50;;;;;;;20.49;44.08;102077.63;5053598;28;20112;-78
2022/07/02 07:02:14;;;;;;;31.50;29.88;;;;;;;20.53;44.22;102075.94;5052751;28;20041;-78
2022/07/02 07:04:42;;;;;;;32.35;30.50;;;;;;;20.55;44.20;102075.72;5053305;28;20062;-78
2022/07/02 07:07:09;;;;;;;31.40;29.70;;;;;;;20.58;44.02;102079.81;5053332;28;20037;-81
2022/07/02 07:09:35;;;;;;;33.13;31.38;;;;;;;20.63;43.91;102080.63;5054096;28;20064;-79
2022/07/02 07:12:04;;;;;;;31.20;29.60;;;;;;;20.66;44.46;102084.75;5053308;28;20040;-78
2022/07/02 07:14:30;;;;;;;31.98;30.30;;;;;;;20.71;44.17;102093.81;5052201;28;20063;-79
2022/07/02 07:16:55;;;;;;;31.70;30.08;;;;;;;20.73;44.18;102083.34;5052103;28;20525;-78
2022/07/02 07:19:21;;;;;;;30.27;28.77;;;;;;;20.78;44.41;102087.19;5053885;28;20120;-78
2022/07/02 07:21:46;;;;;;;32.92;31.17;;;;;;;20.82;44.00;102083.63;5053266;28;20040;-77
2022/07/02 07:24:12;;;;;;;32.97;31.23;;;;;;;20.87;44.05;102086.34;5053392;28;20033;-79
2022/07/02 07:26:38;;;;;;;32.30;30.70;;;;;;;20.90;43.46;102079.47;5052200;28;20036;-79
2022/07/02 07:29:05;;;;;;;31.55;30.05;;;;;;;20.94;43.89;102088.78;5053278;28;20117;-79
2022/07/02 07:31:32;;;;;;;32.22;30.63;;;;;;;20.99;44.02;102094.28;5053072;28;20529;-81
2022/07/02 07:33:58;;;;;;;32.80;31.10;;;;;;;21.04;43.91;102087.91;5053120;28;20029;-81
2022/07/02 07:36:26;;;;;;;32.08;30.48;;;;;;;21.09;44.34;102096.13;5053253;28;20029;-79
2022/07/02 07:38:52;;;;;;;32.83;31.13;;;;;;;21.13;44.10;102089.81;5051861;28;20094;-79
2022/07/02 07:41:19;;;;;;;32.65;30.80;;;;;;;21.20;43.71;102091.44;5053044;28;20408;-78
2022/07/02 07:43:45;;;;;;;33.80;31.90;;;;;;;21.25;43.92;102081.25;5052879;28;20032;-78
2022/07/02 07:46:10;;;;;;;32.47;30.88;;;;;;;21.30;43.61;102086.72;5052651;28;20029;-79
2022/07/02 07:48:36;;;;;;;33.38;31.40;;;;;;;21.36;43.63;102080.06;5052575;28;20036;-79
2022/07/02 07:51:01;;;;;;;32.20;30.70;;;;;;;21.42;43.54;102082.81;5053556;28;20037;-78
2022/07/02 07:53:27;;;;;;;33.78;31.92;;;;;;;21.48;43.99;102078.97;5052922;28;20052;-78
2022/07/02 07:55:53;;;;;;;34.53;32.83;;;;;;;21.54;44.05;102077.81;5052872;28;20082;-78
2022/07/02 07:58:19;;;;;;;33.30;31.70;;;;;;;21.60;43.70;102083.00;5053412;28;20032;-79
2022/07/02 08:00:46;;;;;;;34.17;32.53;;;;;;;21.66;43.58;102074.72;5052416;28;20393;-80
2022/07/02 08:03:13;;;;;;;36.70;34.85;;;;;;;21.72;43.42;102077.16;5053149;28;20057;-78
2022/07/02 08:05:39;;;;;;;33.72;32.13;;;;;;;21.80;43.37;102075.72;5052801;28;20037;-79
2022/07/02 08:08:07;;;;;;;34.05;32.17;;;;;;;21.88;43.20;102077.06;5055117;28;20155;-81
2022/07/02 08:10:33;;;;;;;35.05;33.35;;;;;;;21.93;43.80;102077.00;5056331;28;20045;-79
2022/07/02 08:12:58;;;;;;;35.67;33.65;;;;;;;22.00;43.42;102077.50;5056252;28;20111;-77
2022/07/02 08:15:24;;;;;;;35.05;33.10;;;;;;;22.08;43.44;102076.88;5056686;28;20056;-78
2022/07/02 08:17:50;;;;;;;35.22;33.47;;;;;;;22.16;43.55;102076.25;5056951;28;20025;-79
2022/07/02 08:20:16;;;;;;;34.15;32.55;;;;;;;22.25;43.59;102073.72;5057102;28;20056;-80
2022/07/02 08:22:43;;;;;;;35.30;33.30;;;;;;;22.32;43.45;102076.97;5056865;28;20032;-79
2022/07/02 08:25:09;;;;;;;35.25;33.45;;;;;;;22.39;43.76;102073.88;5056104;28;20488;-79
2022/07/02 08:27:34;;;;;;;34.92;33.13;;;;;;;22.46;43.97;102069.66;5055907;28;20053;-81
2022/07/02 08:29:59;;;;;;;36.22;34.42;;;;;;;22.55;43.42;102069.84;5055599;28;20033;-81
2022/07/02 08:32:26;;;;;;;36.58;34.78;;;;;;;22.64;43.28;102072.78;5055066;28;20060;-79
2022/07/02 08:34:52;;;;;;;38.42;36.25;;;;;;;22.71;43.11;102066.94;5055801;28;20055;-82
2022/07/02 08:37:18;;;;;;;35.45;33.75;;;;;;;22.78;43.40;102059.97;5054800;28;20033;-79
2022/07/02 08:39:43;;;;;;;38.13;36.13;;;;;;;22.87;43.45;102066.47;5054796;28;20037;-79
2022/07/02 08:42:09;;;;;;;37.13;35.25;;;;;;;22.95;43.35;102059.47;5056279;28;20369;-80
2022/07/02 08:44:35;;;;;;;38.40;36.33;;;;;;;23.03;43.30;102058.03;5055672;28;20488;-79
2022/07/02 08:47:06;;;;;;;42.05;40.03;;;;;;;23.11;43.39;102054.66;5055431;28;20051;-78
2022/07/02 08:49:33;;;;;;;38.03;35.72;;;;;;;23.21;42.95;102051.75;5054760;28;20146;-78
2022/07/02 08:52:04;;;;;;;39.42;37.40;;;;;;;23.30;42.95;102049.94;5055498;28;20112;-79
2022/07/02 08:54:31;;;;;;;39.33;37.20;;;;;;;23.41;43.27;102052.56;5054440;28;20037;-79
2022/07/02 08:56:59;;;;;;;39.08;36.88;;;;;;;23.50;43.18;102050.78;5055829;28;20362;-81
2022/07/02 08:59:26;;;;;;;40.40;38.08;;;;;;;23.59;43.37;102053.69;5055447;28;20025;-80
2022/07/02 09:01:52;;;;;;;41.08;39.08;;;;;;;23.68;43.08;102049.13;5054191;28;20035;-79
2022/07/02 09:04:18;;;;;;;40.33;38.22;;;;;;;23.77;43.05;102043.78;5055321;28;20488;-78
2022/07/02 09:06:49;;;;;;;40.83;38.83;;;;;;;23.86;42.72;102041.97;5054290;28;20051;-80
2022/07/02 09:09:16;;;;;;;41.97;39.88;;;;;;;23.95;42.42;102035.47;5055277;28;20504;-78
2022/07/02 09:11:41;;;;;;;42.30;40.22;;;;;;;24.05;42.42;102033.66;5055185;28;20029;-78
2022/07/02 09:14:07;;;;;;;40.80;38.45;;;;;;;24.14;42.54;102034.59;5055063;28;20108;-78
2022/07/02 09:16:34;;;;;;;42.30;40.30;;;;;;;24.24;42.49;102039.09;5055714;28;20462;-79
2022/07/02 09:18:59;;;;;;;43.08;40.92;;;;;;;24.33;42.30;102038.09;5054434;28;20044;-76
2022/07/02 09:21:25;;;;;;;42.22;40.22;;;;;;;24.43;42.69;102028.00;5055060;28;20033;-78
2022/07/02 09:23:51;;;;;;;43.25;41.25;;;;;;;24.52;42.79;102032.53;5054846;28;20045;-80
2022/07/02 09:26:21;;;;;;;44.03;41.83;;;;;;;24.62;42.08;102017.72;5055351;28;20082;-76
2022/07/02 09:28:55;;;;;;;44.53;42.30;;;;;;;24.74;42.18;102025.47;5055526;28;20049;-79
2022/07/02 09:31:20;;;;;;;43.25;40.75;;;;;;;24.84;41.82;102022.50;5053900;28;20373;-79
2022/07/02 09:33:46;;;;;;;43.97;41.67;;;;;;;24.93;41.79;102012.34;5054620;28;20462;-79
2022/07/02 09:36:12;;;;;;;46.55;44.05;;;;;;;25.02;41.31;102013.28;5054702;28;20084;-81
2022/07/02 09:38:50;;;;;;;45.25;42.65;;;;;;;25.13;41.42;102013.84;5055548;28;20110;-79
2022/07/02 09:41:21;;;;;;;46.00;43.80;;;;;;;25.23;42.02;102015.59;5054763;28;20044;-77
2022/07/02 09:43:59;;;;;;;45.13;42.92;;;;;;;25.33;41.82;102006.25;5054933;28;20106;-79
2022/07/02 09:46:25;;;;;;;46.75;44.45;;;;;;;25.42;41.13;102007.94;5054859;28;20029;-80
2022/07/02 09:48:51;;;;;;;46.45;44.05;;;;;;;25.52;41.20;101998.59;5054572;28;20465;-79
2022/07/02 09:51:18;;;;;;;45.25;43.05;;;;;;;25.63;40.91;102001.94;5055014;28;20047;-80
2022/07/02 09:53:51;;;;;;;48.97;46.47;;;;;;;25.73;41.23;101998.06;5054281;28;20075;-77
2022/07/02 09:56:18;;;;;;;48.05;45.83;;;;;;;25.82;41.00;101998.97;5054324;28;20477;-79
2022/07/02 09:58:44;;;;;;;47.92;45.42;;;;;;;25.92;41.09;101997.91;5054298;28;20029;-78
2022/07/02 10:01:09;;;;;;;45.65;42.97;;;;;;;26.02;40.97;101992.09;5054749;28;20113;-78
2022/07/02 10:03:56;;;;;;;46.20;44.00;;;;;;;26.14;41.02;101992.34;5054233;28;20044;-79
2022/07/02 10:06:21;;;;;;;51.17;48.78;;;;;;;26.23;40.98;101997.91;5053366;28;20029;-79
2022/07/02 10:08:48;;;;;;;48.25;46.05;;;;;;;26.32;40.89;101991.28;5054090;28;20036;-79
2022/07/02 10:11:15;;;;;;;50.63;48.22;;;;;;;26.42;40.84;101987.41;5053941;28;20068;-79
2022/07/02 10:13:41;;;;;;;50.45;48.15;;;;;;;26.51;41.02;101982.72;5053652;28;20440;-79
2022/07/02 10:16:15;;;;;;;51.53;48.78;;;;;;;26.61;40.10;101984.41;5053823;28;20389;-80
2022/07/02 10:18:42;;;;;;;51.63;48.78;;;;;;;26.70;40.27;101976.91;5054785;28;20035;-78
2022/07/02 10:21:11;;;;;;;51.03;48.47;;;;;;;26.80;40.31;101980.53;5054387;28;20082;-79
2022/07/02 10:23:38;;;;;;;50.92;48.33;;;;;;;26.90;40.10;101971.91;5053754;28;20509;-79
2022/07/02 10:26:03;;;;;;;49.92;47.58;;;;;;;26.97;39.94;101972.25;5053746;28;20028;-78
2022/07/02 10:28:28;;;;;;;51.05;48.65;;;;;;;27.05;39.70;101971.44;5052705;28;20377;-79
2022/07/02 10:30:55;;;;;;;53.13;50.63;;;;;;;27.15;39.56;101975.84;5052787;28;20072;-78
2022/07/02 10:33:39;;;;;;;56.47;53.85;;;;;;;27.25;39.69;101978.31;5053731;28;20048;-79
2022/07/02 10:36:09;;;;;;;53.15;50.58;;;;;;;27.34;39.86;101975.53;5052990;28;20059;-78
2022/07/02 10:38:39;;;;;;;52.67;50.08;;;;;;;27.42;39.07;101969.19;5052259;28;20090;-78
2022/07/02 10:41:06;;;;;;;56.25;53.47;;;;;;;27.52;39.21;101977.16;5053433;28;20083;-77
2022/07/02 10:43:36;;;;;;;56.78;54.08;;;;;;;27.60;38.59;101969.97;5053450;28;20025;-79
2022/07/02 10:46:13;;;;;;;54.70;52.15;;;;;;;27.68;38.05;101968.31;5053992;28;20021;-72
2022/07/02 10:48:53;;;;;;;56.60;53.70;;;;;;;27.77;38.31;101963.56;5054084;28;20029;-79
2022/07/02 10:51:20;;;;;;;54.95;52.35;;;;;;;27.85;38.16;101973.06;5053511;28;20056;-79
2022/07/02 10:53:56;;;;;;;60.95;58.17;;;;;;;27.93;38.15;101970.25;5053550;28;20497;-79
2022/07/02 10:56:23;;;;;;;57.40;54.58;;;;;;;28.00;38.28;101955.84;5053933;28;20450;-79
2022/07/02 10:58:49;;;;;;;55.45;52.80;;;;;;;28.07;38.33;101958.91;5054257;28;20029;-78
2022/07/02 11:01:17;;;;;;;59.88;56.80;;;;;;;28.15;37.63;101962.81;5053257;28;20037;-79
2022/07/02 11:03:55;;;;;;;59.40;56.60;;;;;;;28.23;37.78;101973.91;5053350;28;20033;-80
2022/07/02 11:06:21;;;;;;;57.90;55.20;;;;;;;28.28;37.74;101959.00;5053276;28;20037;-79
2022/07/02 11:09:02;;;;;;;60.45;57.60;;;;;;;28.36;37.54;101968.44;5053092;28;20496;-78
2022/07/02 11:11:36;;;;;;;56.28;53.67;;;;;;;28.40;37.72;101966.63;5053152;28;20104;-78